ストックホルム/アーランダ の空港の天気 - METARとTAF

ストックホルム・アーランダ空港 ( ESSA / ARN ) - スウェーデン ストックホルム
飛行場実況気象(Metar)
観測時間05/23 02:50 CEST (05/23 00:50 UTC)
風向・風速南西 2m/s
視程10km以上
天気現象
なし
気温10℃
湿度76%
気圧1018hPa
METARESSA 230050Z 22003KT CAVOK 10/06 Q1018 NOSIG
過去の天気等 Google飛行場航空写真 Wunderground天気予報

過去48時間のMETAR

飛行場予報(TAF)
発表時間: 5/23 01:30 CEST (5/22 23:30 UTC)
予報対象時間: 23日2時 CEST ~ 24日2時 CEST
風向・風速南 3m/s
視程10km以上
なし
23日5時 CEST ~ 23日7時 CEST に徐々に
風向・風速北 6m/s
TAF ESSA 222330Z 2300/2324 19005KT CAVOK
BECMG 2303/2305 36012KT